Eagle Rock, Virginia
Current Conditions -  °F | °C
As of 4:35 AM on Monday 20 Oct 2014 (Local Time) from KHSP Reporting Station
Clear Clear  
Wind Chill: 41°   Ceiling: Unl
Heat Index: 47°   Visibility: 10mi
Dew Point: 27°   Wind: 15mph
Humidity: 45%   Direction: 230°SW
Pressure: 30.04"   Gusts: NA
Location:  37.64°N, 79.8°W
Report Text: KHSP 200835Z AUTO 23013KT 10SM CLR 09/M03 A3004 RMK AO2 T00851030
Loading
Personal Weather Stations






























Interactive Weather Map
Tropical Storm Tracking
New forecast layout! Learn more

10-Day Weather Forecast

Advertisements
Track Severe Weather on mobile